Time,TemperatureF,DewpointF,PressureIn,WindDirection,WindDirectionDegrees,WindSpeedMPH,WindSpeedGustMPH,Humidity,HourlyPrecipIn,Conditions,Clouds,dailyrainin,SoftwareType,DateUTC
2013-02-23 00:13:00,33.2,29.0,30.19,East,88,1.0,2.0,85,0.00,,,0.00,weatherlink.com 1.10,2013-02-23 05:13:00,
2013-02-23 00:28:00,33.1,29.0,30.19,East,88,0.0,1.0,85,0.00,,,0.00,weatherlink.com 1.10,2013-02-23 05:28:00,
2013-02-23 00:43:00,33.1,29.0,30.18,East,88,1.0,2.0,86,0.00,,,0.00,weatherlink.com 1.10,2013-02-23 05:43:00,
2013-02-23 00:58:00,33.1,29.0,30.17,East,88,1.0,2.0,85,0.00,,,0.00,weatherlink.com 1.10,2013-02-23 05:58:00,
2013-02-23 01:13:00,33.0,29.0,30.17,East,88,1.0,2.0,86,0.00,,,0.00,weatherlink.com 1.10,2013-02-23 06:13:00,
2013-02-23 01:28:00,33.0,29.0,30.17,East,88,0.0,2.0,86,0.00,,,0.00,weatherlink.com 1.10,2013-02-23 06:28:00,
2013-02-23 01:43:00,33.1,29.0,30.17,East,88,1.0,3.0,86,0.00,,,0.00,weatherlink.com 1.10,2013-02-23 06:43:00,
2013-02-23 01:58:00,33.2,29.0,30.15,East,89,0.0,3.0,85,0.00,,,0.00,weatherlink.com 1.10,2013-02-23 06:58:00,
2013-02-23 02:13:00,33.2,30.0,30.16,East,89,2.0,3.0,86,0.00,,,0.00,weatherlink.com 1.10,2013-02-23 07:13:00,
2013-02-23 02:28:00,33.2,30.0,30.15,East,89,0.0,2.0,86,0.00,,,0.00,weatherlink.com 1.10,2013-02-23 07:28:00,
2013-02-23 02:43:00,33.2,30.0,30.14,East,89,0.0,3.0,86,0.00,,,0.00,weatherlink.com 1.10,2013-02-23 07:43:00,
2013-02-23 02:58:00,33.2,30.0,30.13,East,89,2.0,3.0,86,0.00,,,0.00,weatherlink.com 1.10,2013-02-23 07:58:00,
2013-02-23 03:13:00,33.2,30.0,30.11,East,89,0.0,0.0,86,0.00,,,0.00,weatherlink.com 1.10,2013-02-23 08:13:00,
2013-02-23 03:28:00,33.1,30.0,30.10,East,89,0.0,2.0,87,0.00,,,0.00,weatherlink.com 1.10,2013-02-23 08:28:00,
2013-02-23 03:43:00,33.0,29.0,30.09,East,89,0.0,2.0,86,0.00,,,0.00,weatherlink.com 1.10,2013-02-23 08:43:00,
2013-02-23 03:58:00,33.0,30.0,30.09,East,89,0.0,2.0,87,0.00,,,0.00,weatherlink.com 1.10,2013-02-23 08:58:00,
2013-02-23 04:13:00,33.0,30.0,30.09,East,89,0.0,0.0,87,0.00,,,0.00,weatherlink.com 1.10,2013-02-23 09:13:00,
2013-02-23 04:28:00,33.0,29.0,30.09,East,89,0.0,0.0,86,0.00,,,0.00,weatherlink.com 1.10,2013-02-23 09:28:00,
2013-02-23 04:43:00,33.1,30.0,30.09,East,88,0.0,2.0,87,0.00,,,0.00,weatherlink.com 1.10,2013-02-23 09:43:00,
2013-02-23 04:58:00,33.1,30.0,30.08,East,88,0.0,1.0,87,0.00,,,0.00,weatherlink.com 1.10,2013-02-23 09:58:00,
2013-02-23 05:13:00,33.1,30.0,30.08,East,88,0.0,3.0,87,0.00,,,0.00,weatherlink.com 1.10,2013-02-23 10:13:00,
2013-02-23 05:28:00,33.2,30.0,30.07,East,88,0.0,2.0,88,0.00,,,0.00,weatherlink.com 1.10,2013-02-23 10:28:00,
2013-02-23 05:43:00,33.1,30.0,30.06,East,88,2.0,3.0,88,0.00,,,0.00,weatherlink.com 1.10,2013-02-23 10:43:00,
2013-02-23 05:58:00,32.8,30.0,30.06,East,87,0.0,5.0,88,0.00,,,0.00,weatherlink.com 1.10,2013-02-23 10:58:00,
2013-02-23 06:13:00,32.9,30.0,30.07,East,87,0.0,2.0,89,0.00,,,0.00,weatherlink.com 1.10,2013-02-23 11:13:00,
2013-02-23 06:28:00,33.0,30.0,30.08,East,87,0.0,1.0,89,0.00,,,0.00,weatherlink.com 1.10,2013-02-23 11:28:00,
2013-02-23 06:43:00,33.1,30.0,30.07,East,87,0.0,2.0,89,0.00,,,0.00,weatherlink.com 1.10,2013-02-23 11:43:00,
2013-02-23 06:58:00,33.1,30.0,30.07,East,87,0.0,2.0,89,0.00,,,0.00,weatherlink.com 1.10,2013-02-23 11:58:00,
2013-02-23 07:13:00,33.1,30.0,30.07,NW,325,1.0,4.0,89,0.00,,,0.00,weatherlink.com 1.10,2013-02-23 12:13:00,
2013-02-23 07:29:00,33.2,31.0,30.05,NNW,334,4.0,5.0,90,0.00,,,0.00,weatherlink.com 1.10,2013-02-23 12:29:00,
2013-02-23 07:44:00,33.3,31.0,30.05,NNW,334,4.0,6.0,90,0.00,,,0.00,weatherlink.com 1.10,2013-02-23 12:44:00,
2013-02-23 07:59:00,33.4,31.0,30.04,North,360,3.0,6.0,89,0.00,,,0.00,weatherlink.com 1.10,2013-02-23 12:59:00,
2013-02-23 08:14:00,33.5,31.0,30.05,NNE,19,2.0,5.0,89,0.00,,,0.00,weatherlink.com 1.10,2013-02-23 13:14:00,
2013-02-23 08:29:00,33.7,31.0,30.06,North,5,0.0,4.0,88,0.00,,,0.00,weatherlink.com 1.10,2013-02-23 13:29:00,
2013-02-23 08:44:00,33.8,31.0,30.04,North,5,4.0,5.0,88,0.00,,,0.00,weatherlink.com 1.10,2013-02-23 13:44:00,
2013-02-23 08:59:00,34.2,31.0,30.04,North,5,0.0,3.0,89,0.00,,,0.00,weatherlink.com 1.10,2013-02-23 13:59:00,
2013-02-23 09:14:00,34.4,31.0,30.02,NE,44,1.0,3.0,88,0.00,,,0.00,weatherlink.com 1.10,2013-02-23 14:14:00,
2013-02-23 09:29:00,34.6,31.0,30.02,NE,44,3.0,3.0,87,0.00,,,0.00,weatherlink.com 1.10,2013-02-23 14:29:00,
2013-02-23 09:44:00,34.7,31.0,30.01,NNE,26,4.0,4.0,87,0.00,,,0.00,weatherlink.com 1.10,2013-02-23 14:44:00,
2013-02-23 09:59:00,35.1,31.0,30.01,NE,45,0.0,4.0,86,0.00,,,0.00,weatherlink.com 1.10,2013-02-23 14:59:00,
2013-02-23 10:14:00,35.3,32.0,30.00,NE,52,3.0,4.0,86,0.00,,,0.00,weatherlink.com 1.10,2013-02-23 15:14:00,
2013-02-23 10:29:00,35.5,31.0,29.98,NE,50,2.0,4.0,85,0.00,,,0.00,weatherlink.com 1.10,2013-02-23 15:29:00,
2013-02-23 10:44:00,36.3,32.0,29.97,North,9,2.0,4.0,85,0.00,,,0.00,weatherlink.com 1.10,2013-02-23 15:44:00,
2013-02-23 10:59:00,36.9,33.0,29.97,NE,48,4.0,4.0,84,0.00,,,0.00,weatherlink.com 1.10,2013-02-23 15:59:00,
2013-02-23 11:14:00,37.9,33.0,29.97,NNE,19,0.0,4.0,82,0.00,,,0.00,weatherlink.com 1.10,2013-02-23 16:14:00,
2013-02-23 11:29:00,38.9,34.0,29.97,NNW,346,1.0,5.0,81,0.00,,,0.00,weatherlink.com 1.10,2013-02-23 16:29:00,
2013-02-23 11:44:00,39.9,34.0,29.96,North,349,1.0,5.0,80,0.00,,,0.00,weatherlink.com 1.10,2013-02-23 16:44:00,
2013-02-23 11:59:00,41.3,35.0,29.96,NE,40,3.0,6.0,78,0.00,,,0.00,weatherlink.com 1.10,2013-02-23 16:59:00,
2013-02-23 12:14:00,41.9,35.0,29.95,NNE,28,0.0,6.0,77,0.00,,,0.00,weatherlink.com 1.10,2013-02-23 17:14:00,
2013-02-23 12:29:00,42.5,36.0,29.95,NNE,30,3.0,5.0,78,0.00,,,0.00,weatherlink.com 1.10,2013-02-23 17:29:00,
2013-02-23 12:45:00,43.3,36.0,29.95,ENE,57,2.0,5.0,75,0.00,,,0.00,weatherlink.com 1.10,2013-02-23 17:45:00,
2013-02-23 13:00:00,44.0,36.0,29.94,NW,321,1.0,4.0,74,0.00,,,0.00,weatherlink.com 1.10,2013-02-23 18:00:00,
2013-02-23 13:15:00,44.8,37.0,29.93,NNW,333,4.0,5.0,74,0.00,,,0.00,weatherlink.com 1.10,2013-02-23 18:15:00,
2013-02-23 13:30:00,46.0,38.0,29.92,North,5,3.0,6.0,73,0.00,,,0.00,weatherlink.com 1.10,2013-02-23 18:30:00,
2013-02-23 13:45:00,46.9,38.0,29.91,East,88,3.0,5.0,71,0.00,,,0.00,weatherlink.com 1.10,2013-02-23 18:45:00,
2013-02-23 14:00:00,47.2,39.0,29.91,East,85,2.0,5.0,73,0.00,,,0.00,weatherlink.com 1.10,2013-02-23 19:00:00,
2013-02-23 14:15:00,47.7,39.0,29.91,East,93,5.0,6.0,73,0.00,,,0.00,weatherlink.com 1.10,2013-02-23 19:15:00,
2013-02-23 14:30:00,48.0,39.0,29.90,ESE,115,2.0,8.0,72,0.00,,,0.00,weatherlink.com 1.10,2013-02-23 19:30:00,
2013-02-23 14:45:00,48.5,40.0,29.89,ESE,122,5.0,5.0,73,0.00,,,0.00,weatherlink.com 1.10,2013-02-23 19:45:00,
2013-02-23 15:00:00,49.3,41.0,29.88,East,98,7.0,7.0,73,0.00,,,0.00,weatherlink.com 1.10,2013-02-23 20:00:00,
2013-02-23 15:15:00,49.2,41.0,29.87,East,98,5.0,8.0,74,0.00,,,0.00,weatherlink.com 1.10,2013-02-23 20:15:00,
2013-02-23 15:30:00,49.3,41.0,29.87,East,98,6.0,8.0,74,0.00,,,0.00,weatherlink.com 1.10,2013-02-23 20:30:00,
2013-02-23 15:45:00,49.2,42.0,29.87,East,96,5.0,7.0,75,0.00,,,0.00,weatherlink.com 1.10,2013-02-23 20:45:00,
2013-02-23 16:00:00,49.2,42.0,29.87,SE,135,3.0,4.0,75,0.00,,,0.00,weatherlink.com 1.10,2013-02-23 21:00:00,
2013-02-23 16:15:00,49.4,42.0,29.86,SE,126,2.0,4.0,75,0.00,,,0.00,weatherlink.com 1.10,2013-02-23 21:15:00,
2013-02-23 16:30:00,49.6,42.0,29.86,ESE,121,3.0,4.0,75,0.00,,,0.00,weatherlink.com 1.10,2013-02-23 21:30:00,
2013-02-23 16:45:00,49.4,42.0,29.86,ESE,121,0.0,3.0,75,0.00,,,0.00,weatherlink.com 1.10,2013-02-23 21:45:00,
2013-02-23 17:00:00,49.5,42.0,29.86,ESE,121,0.0,2.0,76,0.00,,,0.00,weatherlink.com 1.10,2013-02-23 22:00:00,
2013-02-23 17:15:00,49.8,42.0,29.86,ESE,121,2.0,2.0,75,0.00,,,0.00,weatherlink.com 1.10,2013-02-23 22:15:00,
2013-02-23 17:30:00,48.9,42.0,29.86,ESE,121,0.0,2.0,76,0.00,,,0.00,weatherlink.com 1.10,2013-02-23 22:30:00,
2013-02-23 17:45:00,48.2,41.0,29.86,ESE,121,0.0,1.0,77,0.00,,,0.00,weatherlink.com 1.10,2013-02-23 22:45:00,
2013-02-23 18:00:00,47.1,41.0,29.86,ESE,121,0.0,0.0,79,0.00,,,0.00,weatherlink.com 1.10,2013-02-23 23:00:00,
2013-02-23 18:15:00,45.5,40.0,29.86,ESE,121,0.0,0.0,80,0.00,,,0.00,weatherlink.com 1.10,2013-02-23 23:15:00,
2013-02-23 18:30:00,44.1,40.0,29.85,ESE,121,0.0,0.0,84,0.00,,,0.00,weatherlink.com 1.10,2013-02-23 23:30:00,
2013-02-23 18:45:00,43.6,39.0,29.85,ESE,121,0.0,0.0,84,0.00,,,0.00,weatherlink.com 1.10,2013-02-23 23:45:00,
2013-02-23 19:00:00,42.5,39.0,29.85,ESE,121,0.0,0.0,87,0.00,,,0.00,weatherlink.com 1.10,2013-02-24 00:00:00,
2013-02-23 19:15:00,41.9,38.0,29.85,ESE,121,0.0,1.0,86,0.00,,,0.00,weatherlink.com 1.10,2013-02-24 00:15:00,
2013-02-23 19:30:00,40.5,38.0,29.85,ESE,121,0.0,0.0,89,0.00,,,0.00,weatherlink.com 1.10,2013-02-24 00:30:00,
2013-02-23 19:45:00,40.3,38.0,29.84,ESE,121,0.0,1.0,90,0.00,,,0.00,weatherlink.com 1.10,2013-02-24 00:45:00,
2013-02-23 20:00:00,39.7,37.0,29.84,ESE,121,0.0,2.0,89,0.00,,,0.00,weatherlink.com 1.10,2013-02-24 01:00:00,
2013-02-23 20:15:00,39.6,38.0,29.83,North,9,0.0,3.0,92,0.00,,,0.00,weatherlink.com 1.10,2013-02-24 01:15:00,
2013-02-23 20:30:00,39.4,38.0,29.83,North,9,1.0,3.0,93,0.00,,,0.00,weatherlink.com 1.10,2013-02-24 01:30:00,
2013-02-23 20:45:00,39.3,37.0,29.84,North,9,0.0,1.0,92,0.00,,,0.00,weatherlink.com 1.10,2013-02-24 01:45:00,
2013-02-23 21:00:00,38.4,36.0,29.84,North,9,0.0,0.0,92,0.00,,,0.00,weatherlink.com 1.10,2013-02-24 02:00:00,
2013-02-23 21:15:00,37.7,36.0,29.83,North,9,0.0,1.0,92,0.00,,,0.00,weatherlink.com 1.10,2013-02-24 02:15:00,
2013-02-23 21:30:00,37.0,36.0,29.83,North,9,2.0,2.0,94,0.00,,,0.00,weatherlink.com 1.10,2013-02-24 02:30:00,
2013-02-23 21:45:00,37.7,36.0,29.83,North,9,0.0,2.0,94,0.00,,,0.00,weatherlink.com 1.10,2013-02-24 02:45:00,
2013-02-23 22:00:00,37.3,36.0,29.82,North,9,0.0,2.0,94,0.00,,,0.00,weatherlink.com 1.10,2013-02-24 03:00:00,
2013-02-23 22:15:00,37.6,36.0,29.83,North,9,0.0,1.0,95,0.00,,,0.00,weatherlink.com 1.10,2013-02-24 03:15:00,
2013-02-23 22:31:00,38.4,37.0,29.82,North,9,0.0,0.0,95,0.00,,,0.00,weatherlink.com 1.10,2013-02-24 03:31:00,
2013-02-23 22:45:00,38.5,37.0,29.82,North,9,0.0,0.0,95,0.00,,,0.00,weatherlink.com 1.10,2013-02-24 03:45:00,
2013-02-23 23:00:00,38.9,38.0,29.83,North,9,0.0,0.0,96,0.00,,,0.00,weatherlink.com 1.10,2013-02-24 04:00:00,
2013-02-23 23:15:00,39.2,38.0,29.83,North,9,0.0,0.0,96,0.00,,,0.00,weatherlink.com 1.10,2013-02-24 04:15:00,
2013-02-23 23:30:00,39.6,39.0,29.83,North,9,0.0,1.0,96,0.00,,,0.00,weatherlink.com 1.10,2013-02-24 04:30:00,
2013-02-23 23:45:00,39.6,39.0,29.83,North,5,0.0,2.0,96,0.00,,,0.00,weatherlink.com 1.10,2013-02-24 04:45:00,